sensor_id;sensor_type;location;lat;lon;timestamp;pressure;altitude;pressure_sealevel;temperature;humidity
7333;BME280;3707;43.618;25.342;2023-09-30T00:01:09;100492.25;;;20.01;73.73
7333;BME280;3707;43.618;25.342;2023-09-30T00:03:36;100505.63;;;19.89;74.55
7333;BME280;3707;43.618;25.342;2023-09-30T00:06:03;100503.09;;;19.83;75.25
7333;BME280;3707;43.618;25.342;2023-09-30T00:08:31;100491.66;;;19.84;75.95
7333;BME280;3707;43.618;25.342;2023-09-30T00:10:59;100492.66;;;19.77;76.62
7333;BME280;3707;43.618;25.342;2023-09-30T00:13:25;100483.16;;;19.67;77.55
7333;BME280;3707;43.618;25.342;2023-09-30T00:15:52;100497.03;;;19.78;78.38
7333;BME280;3707;43.618;25.342;2023-09-30T00:18:19;100500.53;;;19.77;78.24
7333;BME280;3707;43.618;25.342;2023-09-30T00:20:46;100502.44;;;19.69;78.82
7333;BME280;3707;43.618;25.342;2023-09-30T00:23:13;100492.03;;;19.60;79.89
7333;BME280;3707;43.618;25.342;2023-09-30T00:25:41;100502.47;;;19.66;80.53
7333;BME280;3707;43.618;25.342;2023-09-30T00:28:08;100508.88;;;19.48;81.78
7333;BME280;3707;43.618;25.342;2023-09-30T00:30:35;100508.25;;;19.26;81.37
7333;BME280;3707;43.618;25.342;2023-09-30T00:33:02;100500.56;;;19.14;81.17
7333;BME280;3707;43.618;25.342;2023-09-30T00:35:29;100506.25;;;18.79;82.70
7333;BME280;3707;43.618;25.342;2023-09-30T00:37:58;100488.16;;;18.54;84.02
7333;BME280;3707;43.618;25.342;2023-09-30T00:40:24;100502.06;;;18.63;84.82
7333;BME280;3707;43.618;25.342;2023-09-30T00:42:53;100493.25;;;18.66;85.73
7333;BME280;3707;43.618;25.342;2023-09-30T00:45:19;100501.22;;;18.60;86.33
7333;BME280;3707;43.618;25.342;2023-09-30T00:47:46;100503.03;;;18.50;88.08
7333;BME280;3707;43.618;25.342;2023-09-30T00:50:13;100483.97;;;18.31;88.28
7333;BME280;3707;43.618;25.342;2023-09-30T00:52:40;100509.22;;;18.46;89.07
7333;BME280;3707;43.618;25.342;2023-09-30T00:55:08;100504.00;;;18.42;88.76
7333;BME280;3707;43.618;25.342;2023-09-30T00:57:37;100484.88;;;18.27;89.76
7333;BME280;3707;43.618;25.342;2023-09-30T01:00:07;100481.34;;;18.31;91.02
7333;BME280;3707;43.618;25.342;2023-09-30T01:02:37;100509.34;;;18.32;90.43
7333;BME280;3707;43.618;25.342;2023-09-30T01:05:04;100499.72;;;18.33;90.87
7333;BME280;3707;43.618;25.342;2023-09-30T01:07:33;100493.53;;;18.39;91.59
7333;BME280;3707;43.618;25.342;2023-09-30T01:10:00;100501.41;;;18.37;92.61
7333;BME280;3707;43.618;25.342;2023-09-30T01:12:27;100496.16;;;18.37;93.92
7333;BME280;3707;43.618;25.342;2023-09-30T01:14:57;100496.03;;;18.52;94.85
7333;BME280;3707;43.618;25.342;2023-09-30T01:17:25;100497.78;;;18.53;95.15
7333;BME280;3707;43.618;25.342;2023-09-30T01:19:54;100500.41;;;18.49;96.31
7333;BME280;3707;43.618;25.342;2023-09-30T01:22:22;100502.88;;;18.68;95.72
7333;BME280;3707;43.618;25.342;2023-09-30T01:24:49;100497.72;;;18.59;95.93
7333;BME280;3707;43.618;25.342;2023-09-30T01:27:16;100502.06;;;18.65;95.13
7333;BME280;3707;43.618;25.342;2023-09-30T01:29:47;100479.25;;;18.67;95.13
7333;BME280;3707;43.618;25.342;2023-09-30T01:32:14;100502.81;;;18.73;94.65
7333;BME280;3707;43.618;25.342;2023-09-30T01:34:42;100474.28;;;18.40;95.58
7333;BME280;3707;43.618;25.342;2023-09-30T01:37:09;100496.97;;;18.47;96.12
7333;BME280;3707;43.618;25.342;2023-09-30T01:39:37;100493.44;;;18.48;97.62
7333;BME280;3707;43.618;25.342;2023-09-30T01:42:04;100504.94;;;18.34;98.08
7333;BME280;3707;43.618;25.342;2023-09-30T01:44:31;100493.63;;;18.26;98.06
7333;BME280;3707;43.618;25.342;2023-09-30T01:46:58;100451.91;;;17.99;98.49
7333;BME280;3707;43.618;25.342;2023-09-30T01:49:25;100476.28;;;18.13;98.57
7333;BME280;3707;43.618;25.342;2023-09-30T01:51:52;100506.72;;;18.31;98.76
7333;BME280;3707;43.618;25.342;2023-09-30T01:54:19;100486.75;;;18.16;99.28
7333;BME280;3707;43.618;25.342;2023-09-30T01:56:47;100499.75;;;18.28;98.98
7333;BME280;3707;43.618;25.342;2023-09-30T01:59:15;100475.50;;;18.02;98.72
7333;BME280;3707;43.618;25.342;2023-09-30T02:01:43;100493.84;;;18.08;98.17
7333;BME280;3707;43.618;25.342;2023-09-30T02:04:11;100512.16;;;18.14;98.59
7333;BME280;3707;43.618;25.342;2023-09-30T02:06:38;100511.28;;;18.15;98.92
7333;BME280;3707;43.618;25.342;2023-09-30T02:09:05;100502.53;;;18.13;100.00
7333;BME280;3707;43.618;25.342;2023-09-30T02:11:34;100505.97;;;18.21;100.00
7333;BME280;3707;43.618;25.342;2023-09-30T02:14:03;100507.63;;;18.28;100.00
7333;BME280;3707;43.618;25.342;2023-09-30T02:16:31;100512.06;;;18.20;100.00
7333;BME280;3707;43.618;25.342;2023-09-30T02:18:58;100510.38;;;18.16;100.00
7333;BME280;3707;43.618;25.342;2023-09-30T02:21:25;100510.41;;;18.15;100.00
7333;BME280;3707;43.618;25.342;2023-09-30T02:23:52;100507.63;;;18.28;100.00
7333;BME280;3707;43.618;25.342;2023-09-30T02:26:20;100501.41;;;18.39;100.00
7333;BME280;3707;43.618;25.342;2023-09-30T02:28:47;100502.41;;;18.25;100.00
7333;BME280;3707;43.618;25.342;2023-09-30T02:31:15;100493.66;;;18.23;100.00
7333;BME280;3707;43.618;25.342;2023-09-30T02:33:43;100509.47;;;18.20;100.00
7333;BME280;3707;43.618;25.342;2023-09-30T02:36:10;100516.53;;;18.15;100.00
7333;BME280;3707;43.618;25.342;2023-09-30T02:38:37;100486.88;;;18.04;100.00
7333;BME280;3707;43.618;25.342;2023-09-30T02:41:04;100493.03;;;18.00;100.00
7333;BME280;3707;43.618;25.342;2023-09-30T02:43:31;100483.47;;;17.93;100.00
7333;BME280;3707;43.618;25.342;2023-09-30T02:45:59;100488.72;;;17.93;100.00
7333;BME280;3707;43.618;25.342;2023-09-30T02:48:27;100502.56;;;18.10;100.00
7333;BME280;3707;43.618;25.342;2023-09-30T02:50:53;100495.69;;;17.97;100.00
7333;BME280;3707;43.618;25.342;2023-09-30T02:53:21;100502.66;;;17.98;100.00
7333;BME280;3707;43.618;25.342;2023-09-30T02:55:47;100507.06;;;17.96;100.00
7333;BME280;3707;43.618;25.342;2023-09-30T02:58:15;100484.47;;;17.78;100.00
7333;BME280;3707;43.618;25.342;2023-09-30T03:00:47;100499.22;;;17.93;100.00
7333;BME280;3707;43.618;25.342;2023-09-30T03:03:14;100485.41;;;17.68;100.00
7333;BME280;3707;43.618;25.342;2023-09-30T03:05:42;100505.34;;;17.89;100.00
7333;BME280;3707;43.618;25.342;2023-09-30T03:08:11;100498.41;;;17.82;100.00
7333;BME280;3707;43.618;25.342;2023-09-30T03:10:37;100501.97;;;17.75;100.00
7333;BME280;3707;43.618;25.342;2023-09-30T03:13:06;100499.34;;;17.75;100.00
7333;BME280;3707;43.618;25.342;2023-09-30T03:15:34;100506.34;;;17.73;100.00
7333;BME280;3707;43.618;25.342;2023-09-30T03:18:01;100504.66;;;17.69;100.00
7333;BME280;3707;43.618;25.342;2023-09-30T03:20:29;100502.88;;;17.72;100.00
7333;BME280;3707;43.618;25.342;2023-09-30T03:22:57;100503.75;;;17.71;100.00
7333;BME280;3707;43.618;25.342;2023-09-30T03:25:25;100503.78;;;17.68;100.00
7333;BME280;3707;43.618;25.342;2023-09-30T03:27:52;100504.66;;;17.63;100.00
7333;BME280;3707;43.618;25.342;2023-09-30T03:30:19;100524.72;;;17.70;100.00
7333;BME280;3707;43.618;25.342;2023-09-30T03:32:46;100515.22;;;17.49;100.00
7333;BME280;3707;43.618;25.342;2023-09-30T03:35:13;100520.56;;;17.31;100.00
7333;BME280;3707;43.618;25.342;2023-09-30T03:37:42;100521.41;;;17.41;100.00
7333;BME280;3707;43.618;25.342;2023-09-30T03:40:11;100500.50;;;17.24;100.00
7333;BME280;3707;43.618;25.342;2023-09-30T03:42:40;100520.66;;;17.14;100.00
7333;BME280;3707;43.618;25.342;2023-09-30T03:45:09;100523.28;;;17.14;100.00
7333;BME280;3707;43.618;25.342;2023-09-30T03:47:36;100531.13;;;17.17;100.00
7333;BME280;3707;43.618;25.342;2023-09-30T03:50:04;100529.38;;;17.16;100.00
7333;BME280;3707;43.618;25.342;2023-09-30T03:52:38;100536.41;;;17.05;100.00
7333;BME280;3707;43.618;25.342;2023-09-30T03:55:06;100532.91;;;17.09;100.00
7333;BME280;3707;43.618;25.342;2023-09-30T03:57:34;100508.44;;;17.10;100.00
7333;BME280;3707;43.618;25.342;2023-09-30T04:00:01;100505.00;;;16.99;100.00
7333;BME280;3707;43.618;25.342;2023-09-30T04:02:31;100519.81;;;17.11;100.00
7333;BME280;3707;43.618;25.342;2023-09-30T04:04:58;100512.81;;;17.10;100.00
7333;BME280;3707;43.618;25.342;2023-09-30T04:07:25;100514.69;;;16.77;100.00
7333;BME280;3707;43.618;25.342;2023-09-30T04:09:54;100491.88;;;17.07;100.00
7333;BME280;3707;43.618;25.342;2023-09-30T04:12:21;100517.09;;;17.27;100.00
7333;BME280;3707;43.618;25.342;2023-09-30T04:14:50;100515.31;;;17.35;100.00
7333;BME280;3707;43.618;25.342;2023-09-30T04:17:17;100518.78;;;17.41;99.34
7333;BME280;3707;43.618;25.342;2023-09-30T04:19:44;100519.66;;;17.40;99.14
7333;BME280;3707;43.618;25.342;2023-09-30T04:22:11;100503.97;;;17.32;98.96
7333;BME280;3707;43.618;25.342;2023-09-30T04:24:38;100517.03;;;17.44;98.33
7333;BME280;3707;43.618;25.342;2023-09-30T04:27:05;100514.34;;;17.50;99.36
7333;BME280;3707;43.618;25.342;2023-09-30T04:29:33;100529.16;;;17.65;95.49
7333;BME280;3707;43.618;25.342;2023-09-30T04:32:01;100524.72;;;17.74;93.27
7333;BME280;3707;43.618;25.342;2023-09-30T04:34:28;100529.03;;;17.83;92.21
7333;BME280;3707;43.618;25.342;2023-09-30T04:36:55;100528.91;;;17.97;92.53
7333;BME280;3707;43.618;25.342;2023-09-30T04:39:22;100513.19;;;17.97;90.01
7333;BME280;3707;43.618;25.342;2023-09-30T04:41:50;100527.97;;;18.08;89.96
7333;BME280;3707;43.618;25.342;2023-09-30T04:44:17;100514.84;;;18.07;89.91
7333;BME280;3707;43.618;25.342;2023-09-30T04:46:43;100533.00;;;18.26;88.90
7333;BME280;3707;43.618;25.342;2023-09-30T04:49:12;100511.16;;;18.26;88.44
7333;BME280;3707;43.618;25.342;2023-09-30T04:51:39;100538.13;;;18.42;89.47
7333;BME280;3707;43.618;25.342;2023-09-30T04:54:06;100538.13;;;18.42;87.18
7333;BME280;3707;43.618;25.342;2023-09-30T04:56:33;100552.13;;;18.44;87.97
7333;BME280;3707;43.618;25.342;2023-09-30T04:59:00;100544.19;;;18.50;89.63
7333;BME280;3707;43.618;25.342;2023-09-30T05:01:27;100537.94;;;18.63;88.36
7333;BME280;3707;43.618;25.342;2023-09-30T05:03:54;100545.00;;;18.61;89.97
7333;BME280;3707;43.618;25.342;2023-09-30T05:06:23;100549.22;;;18.74;88.41
7333;BME280;3707;43.618;25.342;2023-09-30T05:08:50;100556.28;;;18.69;87.99
7333;BME280;3707;43.618;25.342;2023-09-30T05:11:17;100568.63;;;18.61;87.66
7333;BME280;3707;43.618;25.342;2023-09-30T05:13:44;100552.25;;;18.31;89.60
7333;BME280;3707;43.618;25.342;2023-09-30T05:16:11;100564.47;;;18.36;91.07
7333;BME280;3707;43.618;25.342;2023-09-30T05:18:38;100557.34;;;18.45;87.76
7333;BME280;3707;43.618;25.342;2023-09-30T05:21:05;100563.38;;;18.61;87.37
7333;BME280;3707;43.618;25.342;2023-09-30T05:23:33;100564.91;;;18.80;88.85
7333;BME280;3707;43.618;25.342;2023-09-30T05:26:01;100561.63;;;18.61;83.61
7333;BME280;3707;43.618;25.342;2023-09-30T05:28:28;100551.03;;;18.69;83.26
7333;BME280;3707;43.618;25.342;2023-09-30T05:30:54;100559.56;;;18.89;80.95
7333;BME280;3707;43.618;25.342;2023-09-30T05:33:21;100563.91;;;18.92;79.20
7333;BME280;3707;43.618;25.342;2023-09-30T05:35:48;100516.91;;;18.69;80.51
7333;BME280;3707;43.618;25.342;2023-09-30T05:38:15;100566.53;;;18.93;80.79
7333;BME280;3707;43.618;25.342;2023-09-30T05:40:46;100562.94;;;19.00;81.21
7333;BME280;3707;43.618;25.342;2023-09-30T05:43:14;100458.41;;;18.52;79.34
7333;BME280;3707;43.618;25.342;2023-09-30T05:45:42;100545.13;;;19.25;80.48
7333;BME280;3707;43.618;25.342;2023-09-30T05:48:14;100470.25;;;18.86;77.47
7333;BME280;3707;43.618;25.342;2023-09-30T05:50:41;100573.59;;;19.60;77.82
7333;BME280;3707;43.618;25.342;2023-09-30T05:53:09;100557.25;;;19.33;77.42
7333;BME280;3707;43.618;25.342;2023-09-30T05:55:36;100575.59;;;19.43;78.41
7333;BME280;3707;43.618;25.342;2023-09-30T05:58:05;100580.59;;;19.61;78.13
7333;BME280;3707;43.618;25.342;2023-09-30T06:00:32;100573.78;;;19.46;77.65
7333;BME280;3707;43.618;25.342;2023-09-30T06:03:00;100559.00;;;19.35;78.42
7333;BME280;3707;43.618;25.342;2023-09-30T06:05:29;100580.09;;;19.31;80.70
7333;BME280;3707;43.618;25.342;2023-09-30T06:07:57;100595.75;;;19.44;81.39
7333;BME280;3707;43.618;25.342;2023-09-30T06:10:24;100597.53;;;19.42;81.69
7333;BME280;3707;43.618;25.342;2023-09-30T06:12:52;100593.91;;;19.49;82.56
7333;BME280;3707;43.618;25.342;2023-09-30T06:15:22;100540.03;;;19.10;83.35
7333;BME280;3707;43.618;25.342;2023-09-30T06:17:51;100600.94;;;19.50;82.79
7333;BME280;3707;43.618;25.342;2023-09-30T06:20:18;100604.38;;;19.52;82.83
7333;BME280;3707;43.618;25.342;2023-09-30T06:22:48;100579.06;;;19.46;81.35
7333;BME280;3707;43.618;25.342;2023-09-30T06:25:16;100602.53;;;19.60;80.99
7333;BME280;3707;43.618;25.342;2023-09-30T06:27:43;100592.69;;;19.75;80.54
7333;BME280;3707;43.618;25.342;2023-09-30T06:30:11;100610.84;;;19.94;79.86
7333;BME280;3707;43.618;25.342;2023-09-30T06:32:40;100607.41;;;19.87;78.70
7333;BME280;3707;43.618;25.342;2023-09-30T06:35:07;100582.16;;;19.75;78.50
7333;BME280;3707;43.618;25.342;2023-09-30T06:37:35;100575.09;;;19.79;77.64
7333;BME280;3707;43.618;25.342;2023-09-30T06:40:03;100586.06;;;20.05;77.61
7333;BME280;3707;43.618;25.342;2023-09-30T06:42:30;100592.91;;;20.18;74.73
7333;BME280;3707;43.618;25.342;2023-09-30T06:44:57;100618.13;;;20.36;74.06
7333;BME280;3707;43.618;25.342;2023-09-30T06:47:24;100611.72;;;20.49;73.19
7333;BME280;3707;43.618;25.342;2023-09-30T06:49:52;100593.22;;;20.52;72.52
7333;BME280;3707;43.618;25.342;2023-09-30T06:52:19;100614.88;;;20.71;72.02
7333;BME280;3707;43.618;25.342;2023-09-30T06:54:46;100599.00;;;20.74;70.44
7333;BME280;3707;43.618;25.342;2023-09-30T06:57:13;100617.84;;;21.00;74.97
7333;BME280;3707;43.618;25.342;2023-09-30T06:59:39;100584.25;;;21.11;71.72
7333;BME280;3707;43.618;25.342;2023-09-30T07:02:06;100611.03;;;21.35;69.34
7333;BME280;3707;43.618;25.342;2023-09-30T07:04:33;100613.53;;;21.41;67.77
7333;BME280;3707;43.618;25.342;2023-09-30T07:07:01;100612.41;;;21.54;70.79
7333;BME280;3707;43.618;25.342;2023-09-30T07:09:28;100615.84;;;21.56;72.87
7333;BME280;3707;43.618;25.342;2023-09-30T07:11:55;100608.81;;;21.55;67.00
7333;BME280;3707;43.618;25.342;2023-09-30T07:14:22;100596.41;;;21.60;67.36
7333;BME280;3707;43.618;25.342;2023-09-30T07:16:49;100617.31;;;21.69;66.78
7333;BME280;3707;43.618;25.342;2023-09-30T07:19:15;100600.72;;;21.64;63.48
7333;BME280;3707;43.618;25.342;2023-09-30T07:21:42;100618.19;;;21.71;64.24
7333;BME280;3707;43.618;25.342;2023-09-30T07:24:10;100613.97;;;22.02;62.04
7333;BME280;3707;43.618;25.342;2023-09-30T07:26:37;100615.53;;;22.11;60.52
7333;BME280;3707;43.618;25.342;2023-09-30T07:29:04;100613.00;;;22.05;59.06
7333;BME280;3707;43.618;25.342;2023-09-30T07:31:34;100626.09;;;22.11;57.43
7333;BME280;3707;43.618;25.342;2023-09-30T07:34:01;100622.50;;;22.13;58.52
7333;BME280;3707;43.618;25.342;2023-09-30T07:36:28;100613.78;;;22.10;57.45
7333;BME280;3707;43.618;25.342;2023-09-30T07:38:55;100584.00;;;22.03;58.24
7333;BME280;3707;43.618;25.342;2023-09-30T07:41:23;100604.56;;;22.28;57.76
7333;BME280;3707;43.618;25.342;2023-09-30T07:43:50;100619.28;;;22.38;57.43
7333;BME280;3707;43.618;25.342;2023-09-30T07:46:17;100616.59;;;22.39;57.43
7333;BME280;3707;43.618;25.342;2023-09-30T07:48:44;100622.34;;;22.56;57.95
7333;BME280;3707;43.618;25.342;2023-09-30T07:51:10;100621.47;;;22.56;57.28
7333;BME280;3707;43.618;25.342;2023-09-30T07:53:38;100626.72;;;22.57;57.63
7333;BME280;3707;43.618;25.342;2023-09-30T07:56:06;100548.13;;;22.30;61.11
7333;BME280;3707;43.618;25.342;2023-09-30T07:58:34;100605.84;;;22.82;60.82
7333;BME280;3707;43.618;25.342;2023-09-30T08:01:01;100631.28;;;22.86;58.04
7333;BME280;3707;43.618;25.342;2023-09-30T08:03:29;100626.06;;;22.83;56.74
7333;BME280;3707;43.618;25.342;2023-09-30T08:05:56;100630.94;;;22.98;56.95
7333;BME280;3707;43.618;25.342;2023-09-30T08:08:23;100629.53;;;23.17;56.15
7333;BME280;3707;43.618;25.342;2023-09-30T08:10:50;100630.13;;;23.29;54.85
7333;BME280;3707;43.618;25.342;2023-09-30T08:13:21;100633.28;;;23.43;53.44
7333;BME280;3707;43.618;25.342;2023-09-30T08:15:49;100629.44;;;23.53;53.13
7333;BME280;3707;43.618;25.342;2023-09-30T08:18:16;100632.72;;;23.61;52.58
7333;BME280;3707;43.618;25.342;2023-09-30T08:20:43;100609.81;;;23.60;52.19
7333;BME280;3707;43.618;25.342;2023-09-30T08:23:09;100625.94;;;23.80;51.58
7333;BME280;3707;43.618;25.342;2023-09-30T08:25:37;100628.69;;;23.77;52.55
7333;BME280;3707;43.618;25.342;2023-09-30T08:28:04;100606.16;;;23.64;53.02
7333;BME280;3707;43.618;25.342;2023-09-30T08:30:32;100634.09;;;23.74;53.09
7333;BME280;3707;43.618;25.342;2023-09-30T08:33:02;100626.97;;;23.76;51.23
7333;BME280;3707;43.618;25.342;2023-09-30T08:35:29;100634.00;;;23.77;53.16
7333;BME280;3707;43.618;25.342;2023-09-30T08:37:57;100604.31;;;23.66;53.57
7333;BME280;3707;43.618;25.342;2023-09-30T08:40:24;100630.78;;;23.95;51.81
7333;BME280;3707;43.618;25.342;2023-09-30T08:42:52;100629.47;;;24.08;48.69
7333;BME280;3707;43.618;25.342;2023-09-30T08:45:19;100643.19;;;24.23;48.67
7333;BME280;3707;43.618;25.342;2023-09-30T08:47:46;100622.25;;;24.41;49.29
7333;BME280;3707;43.618;25.342;2023-09-30T08:50:16;100597.75;;;24.61;46.60
7333;BME280;3707;43.618;25.342;2023-09-30T08:52:44;100631.53;;;24.81;47.99
7333;BME280;3707;43.618;25.342;2023-09-30T08:55:11;100626.47;;;24.99;46.94
7333;BME280;3707;43.618;25.342;2023-09-30T08:57:40;100626.75;;;25.16;47.30
7333;BME280;3707;43.618;25.342;2023-09-30T09:00:09;100624.13;;;24.90;46.53
7333;BME280;3707;43.618;25.342;2023-09-30T09:02:38;100619.97;;;25.08;46.94
7333;BME280;3707;43.618;25.342;2023-09-30T09:05:05;100622.91;;;25.00;45.79
7333;BME280;3707;43.618;25.342;2023-09-30T09:07:34;100602.88;;;25.15;47.02
7333;BME280;3707;43.618;25.342;2023-09-30T09:10:05;100593.06;;;25.42;45.21
7333;BME280;3707;43.618;25.342;2023-09-30T09:12:33;100590.22;;;25.46;45.61
7333;BME280;3707;43.618;25.342;2023-09-30T09:15:01;100614.50;;;25.60;45.52
7333;BME280;3707;43.618;25.342;2023-09-30T09:17:40;100610.47;;;25.95;45.83
7333;BME280;3707;43.618;25.342;2023-09-30T09:20:09;100614.91;;;25.95;45.46
7333;BME280;3707;43.618;25.342;2023-09-30T09:22:42;100619.63;;;25.88;44.15
7333;BME280;3707;43.618;25.342;2023-09-30T09:25:09;100612.78;;;25.59;44.14
7333;BME280;3707;43.618;25.342;2023-09-30T09:27:37;100592.72;;;25.74;44.98
7333;BME280;3707;43.618;25.342;2023-09-30T09:30:17;100609.88;;;26.10;43.65
7333;BME280;3707;43.618;25.342;2023-09-30T09:33:01;100606.16;;;26.14;43.46
7333;BME280;3707;43.618;25.342;2023-09-30T09:35:29;100610.94;;;26.28;42.88
7333;BME280;3707;43.618;25.342;2023-09-30T09:38:00;100604.75;;;26.28;43.97
7333;BME280;3707;43.618;25.342;2023-09-30T09:40:29;100605.13;;;26.19;43.59
7333;BME280;3707;43.618;25.342;2023-09-30T09:42:56;100595.53;;;26.14;44.25
7333;BME280;3707;43.618;25.342;2023-09-30T09:45:25;100535.00;;;25.99;43.39
7333;BME280;3707;43.618;25.342;2023-09-30T09:47:53;100601.53;;;26.20;43.21
7333;BME280;3707;43.618;25.342;2023-09-30T09:50:21;100593.78;;;26.13;43.12
7333;BME280;3707;43.618;25.342;2023-09-30T09:52:49;100563.53;;;25.73;43.72
7333;BME280;3707;43.618;25.342;2023-09-30T09:55:19;100602.56;;;25.94;44.07
7333;BME280;3707;43.618;25.342;2023-09-30T09:57:47;100574.97;;;25.53;44.01
7333;BME280;3707;43.618;25.342;2023-09-30T10:00:16;100536.25;;;25.23;43.87
7333;BME280;3707;43.618;25.342;2023-09-30T10:02:44;100597.25;;;25.47;44.00
7333;BME280;3707;43.618;25.342;2023-09-30T10:05:12;100590.63;;;25.36;44.50
7333;BME280;3707;43.618;25.342;2023-09-30T10:07:44;100592.13;;;25.43;44.54
7333;BME280;3707;43.618;25.342;2023-09-30T10:10:14;100543.72;;;25.36;45.11
7333;BME280;3707;43.618;25.342;2023-09-30T10:12:44;100577.94;;;25.67;44.44
7333;BME280;3707;43.618;25.342;2023-09-30T10:15:37;100582.78;;;26.01;43.83
7333;BME280;3707;43.618;25.342;2023-09-30T10:18:05;100587.25;;;26.00;42.92
7333;BME280;3707;43.618;25.342;2023-09-30T10:20:34;100579.94;;;26.05;42.54
7333;BME280;3707;43.618;25.342;2023-09-30T10:23:23;100579.22;;;26.24;42.44
7333;BME280;3707;43.618;25.342;2023-09-30T10:26:13;100581.22;;;26.60;42.35
7333;BME280;3707;43.618;25.342;2023-09-30T10:28:45;100580.25;;;26.61;42.21
7333;BME280;3707;43.618;25.342;2023-09-30T10:31:15;100574.59;;;26.69;41.70
7333;BME280;3707;43.618;25.342;2023-09-30T10:34:20;100570.88;;;26.93;41.63
7333;BME280;3707;43.618;25.342;2023-09-30T10:36:48;100569.56;;;27.03;41.71
7333;BME280;3707;43.618;25.342;2023-09-30T10:39:55;100562.50;;;27.02;42.63
7333;BME280;3707;43.618;25.342;2023-09-30T10:42:47;100552.03;;;27.18;42.57
7333;BME280;3707;43.618;25.342;2023-09-30T10:45:44;100554.63;;;27.20;42.23
7333;BME280;3707;43.618;25.342;2023-09-30T10:48:37;100547.94;;;27.11;41.54
7333;BME280;3707;43.618;25.342;2023-09-30T10:51:14;100557.72;;;27.10;43.03
7333;BME280;3707;43.618;25.342;2023-09-30T10:53:44;100544.31;;;27.12;43.12
7333;BME280;3707;43.618;25.342;2023-09-30T10:56:11;100536.88;;;26.80;42.30
7333;BME280;3707;43.618;25.342;2023-09-30T10:58:39;100544.41;;;26.90;41.10
7333;BME280;3707;43.618;25.342;2023-09-30T11:01:08;100525.03;;;27.07;41.00
7333;BME280;3707;43.618;25.342;2023-09-30T11:03:35;100534.13;;;27.22;39.80
7333;BME280;3707;43.618;25.342;2023-09-30T11:06:02;100537.84;;;27.36;40.92
7333;BME280;3707;43.618;25.342;2023-09-30T11:08:29;100479.75;;;27.26;40.05
7333;BME280;3707;43.618;25.342;2023-09-30T11:10:56;100514.22;;;27.49;38.18
7333;BME280;3707;43.618;25.342;2023-09-30T11:13:23;100523.16;;;27.84;38.86
7333;BME280;3707;43.618;25.342;2023-09-30T11:16:00;100514.97;;;28.05;38.02
7333;BME280;3707;43.618;25.342;2023-09-30T11:18:29;100524.75;;;28.05;37.35
7333;BME280;3707;43.618;25.342;2023-09-30T11:21:08;100508.03;;;28.37;37.74
7333;BME280;3707;43.618;25.342;2023-09-30T11:23:36;100495.06;;;28.47;38.24
7333;BME280;3707;43.618;25.342;2023-09-30T11:26:04;100512.56;;;28.52;36.47
7333;BME280;3707;43.618;25.342;2023-09-30T11:28:38;100503.63;;;28.71;36.24
7333;BME280;3707;43.618;25.342;2023-09-30T11:31:09;100496.97;;;28.45;34.54
7333;BME280;3707;43.618;25.342;2023-09-30T11:33:54;100499.94;;;28.56;34.26
7333;BME280;3707;43.618;25.342;2023-09-30T11:36:23;100495.75;;;27.99;34.88
7333;BME280;3707;43.618;25.342;2023-09-30T11:38:51;100484.50;;;28.28;35.37
7333;BME280;3707;43.618;25.342;2023-09-30T11:41:19;100485.34;;;28.46;34.45
7333;BME280;3707;43.618;25.342;2023-09-30T11:44:01;100442.00;;;28.58;34.46
7333;BME280;3707;43.618;25.342;2023-09-30T11:46:30;100477.03;;;28.69;35.62
7333;BME280;3707;43.618;25.342;2023-09-30T11:49:01;100471.28;;;28.77;35.13
7333;BME280;3707;43.618;25.342;2023-09-30T11:51:29;100467.91;;;28.73;35.45
7333;BME280;3707;43.618;25.342;2023-09-30T11:53:57;100470.75;;;28.53;35.28
7333;BME280;3707;43.618;25.342;2023-09-30T11:56:24;100461.38;;;28.62;35.39
7333;BME280;3707;43.618;25.342;2023-09-30T11:58:55;100436.66;;;28.58;35.65
7333;BME280;3707;43.618;25.342;2023-09-30T12:01:22;100436.81;;;28.55;35.61
7333;BME280;3707;43.618;25.342;2023-09-30T12:03:51;100463.22;;;28.44;34.88
7333;BME280;3707;43.618;25.342;2023-09-30T12:06:20;100449.84;;;28.61;34.61
7333;BME280;3707;43.618;25.342;2023-09-30T12:08:47;100434.13;;;28.39;35.10
7333;BME280;3707;43.618;25.342;2023-09-30T12:11:13;100374.75;;;27.84;35.28
7333;BME280;3707;43.618;25.342;2023-09-30T12:13:41;100443.66;;;28.43;35.18
7333;BME280;3707;43.618;25.342;2023-09-30T12:16:10;100410.03;;;28.24;34.73
7333;BME280;3707;43.618;25.342;2023-09-30T12:18:36;100412.22;;;28.50;35.36
7333;BME280;3707;43.618;25.342;2023-09-30T12:21:03;100428.41;;;28.63;34.78
7333;BME280;3707;43.618;25.342;2023-09-30T12:23:33;100422.22;;;28.62;34.43
7333;BME280;3707;43.618;25.342;2023-09-30T12:26:00;100420.97;;;28.69;34.29
7333;BME280;3707;43.618;25.342;2023-09-30T12:28:30;100394.63;;;28.46;34.74
7333;BME280;3707;43.618;25.342;2023-09-30T12:30:57;100409.63;;;28.48;34.69
7333;BME280;3707;43.618;25.342;2023-09-30T12:33:24;100406.59;;;28.39;34.66
7333;BME280;3707;43.618;25.342;2023-09-30T12:35:53;100387.09;;;28.37;35.19
7333;BME280;3707;43.618;25.342;2023-09-30T12:38:20;100407.75;;;28.66;35.31
7333;BME280;3707;43.618;25.342;2023-09-30T12:40:48;100390.88;;;28.50;34.95
7333;BME280;3707;43.618;25.342;2023-09-30T12:43:15;100375.13;;;28.28;35.26
7333;BME280;3707;43.618;25.342;2023-09-30T12:45:42;100392.03;;;28.44;35.36
7333;BME280;3707;43.618;25.342;2023-09-30T12:48:09;100380.78;;;28.55;34.92
7333;BME280;3707;43.618;25.342;2023-09-30T12:50:36;100375.09;;;28.45;35.39
7333;BME280;3707;43.618;25.342;2023-09-30T12:53:03;100378.69;;;28.44;35.01
7333;BME280;3707;43.618;25.342;2023-09-30T12:55:30;100366.97;;;28.31;35.40
7333;BME280;3707;43.618;25.342;2023-09-30T12:57:58;100370.34;;;28.50;35.43
7333;BME280;3707;43.618;25.342;2023-09-30T13:00:26;100371.56;;;28.45;35.53
7333;BME280;3707;43.618;25.342;2023-09-30T13:02:56;100360.88;;;28.45;35.06
7333;BME280;3707;43.618;25.342;2023-09-30T13:05:23;100337.47;;;28.34;35.02